Time;durP1;ratioP1;P1;durP2;ratioP2;P2;SDS_P1;SDS_P2;PMS_P1;PMS_P2;Temp;Humidity;BMP_temperature;BMP_pressure;BME280_temperature;BME280_humidity;BME280_pressure;Samples;Min_cycle;Max_cycle;Signal;HPM_P1;HPM_P2
2022/01/26 00:00:30;;;;;;;114.35;52.10;;;;;;;;;;5088586;28;20104;-72
2022/01/26 00:05:48;;;;;;;133.20;55.75;;;;;;;;;;5086232;28;20425;-73
2022/01/26 00:08:14;;;;;;;122.57;51.95;;;;;;;;;;5084186;28;20370;-72
2022/01/26 00:10:40;;;;;;;131.73;59.80;;;;;;;;;;5092559;28;20040;-73
2022/01/26 00:13:06;;;;;;;116.15;50.70;;;;;;;;;;5078517;28;20032;-73
2022/01/26 00:15:32;;;;;;;99.38;46.55;;;;;;;;;;5075771;28;20036;-73
2022/01/26 00:17:58;;;;;;;72.38;36.38;;;;;;;;;;5074229;28;20033;-72
2022/01/26 00:20:26;;;;;;;90.50;40.78;;;;;;;;;;5092506;28;20104;-72
2022/01/26 00:25:24;;;;;;;135.75;58.15;;;;;;;;;;5085102;28;20600;-72
2022/01/26 00:34:17;;;;;;;100.53;46.05;;;;;;;;;;5071879;28;20035;-72
2022/01/26 00:38:41;;;;;;;357.77;91.03;;;;;;;;;;5071933;28;20190;-73
2022/01/26 00:41:11;;;;;;;458.30;100.85;;;;;;;;;;5086981;28;20705;-72
2022/01/26 00:43:38;;;;;;;367.00;82.93;;;;;;;;;;5071671;28;20024;-73
2022/01/26 00:46:07;;;;;;;132.20;54.55;;;;;;;;;;5072929;28;20032;-72
2022/01/26 00:48:36;;;;;;;154.70;59.53;;;;;;;;;;5091785;28;20508;-72
2022/01/26 00:51:04;;;;;;;174.70;62.33;;;;;;;;;;5091044;28;20035;-72
2022/01/26 00:53:38;;;;;;;128.32;54.10;;;;;;;;;;5087647;28;20024;-73
2022/01/26 00:56:04;;;;;;;214.95;68.78;;;;;;;;;;5092390;28;20024;-72
2022/01/26 00:58:31;;;;;;;130.02;54.53;;;;;;;;;;5091697;28;20803;-73
2022/01/26 01:00:59;;;;;;;171.98;63.88;;;;;;;;;;5083680;28;20037;-72
2022/01/26 01:03:25;;;;;;;215.70;65.15;;;;;;;;;;5071010;28;20108;-72
2022/01/26 01:08:23;;;;;;;149.05;62.25;;;;;;;;;;5091290;28;20119;-73
2022/01/26 01:10:51;;;;;;;196.57;68.10;;;;;;;;;;5083952;28;20082;-72
2022/01/26 01:13:20;;;;;;;142.68;60.35;;;;;;;;;;5079271;28;20040;-73
2022/01/26 01:15:47;;;;;;;149.50;61.13;;;;;;;;;;5088729;28;20106;-72
2022/01/26 01:18:30;;;;;;;164.13;58.75;;;;;;;;;;5080772;28;20028;-73
2022/01/26 01:31:29;;;;;;;102.28;46.35;;;;;;;;;;5091278;28;20043;-73
2022/01/26 01:33:55;;;;;;;89.00;37.00;;;;;;;;;;5089411;28;20073;-73
2022/01/26 01:36:22;;;;;;;106.53;50.17;;;;;;;;;;5090713;28;20024;-72
2022/01/26 01:38:48;;;;;;;138.60;56.72;;;;;;;;;;5089897;28;20167;-73
2022/01/26 01:41:14;;;;;;;165.57;53.95;;;;;;;;;;5090379;28;20139;-73
2022/01/26 01:43:40;;;;;;;199.55;64.20;;;;;;;;;;5086358;28;20063;-73
2022/01/26 01:46:07;;;;;;;334.25;73.40;;;;;;;;;;5087161;28;20078;-73
2022/01/26 01:48:34;;;;;;;104.97;46.83;;;;;;;;;;5077344;28;20036;-73
2022/01/26 01:51:04;;;;;;;108.28;48.40;;;;;;;;;;5111038;28;20072;-73
2022/01/26 01:53:36;;;;;;;178.43;57.33;;;;;;;;;;5108151;28;20059;-72
2022/01/26 01:56:03;;;;;;;263.23;64.53;;;;;;;;;;5090422;28;20493;-73
2022/01/26 01:58:29;;;;;;;373.55;80.85;;;;;;;;;;5089240;28;20044;-72
2022/01/26 02:00:56;;;;;;;171.00;52.60;;;;;;;;;;5075077;28;20050;-72
2022/01/26 02:03:22;;;;;;;148.32;53.13;;;;;;;;;;5081960;28;20441;-73
2022/01/26 02:05:48;;;;;;;102.72;47.17;;;;;;;;;;5082414;28;20767;-72
2022/01/26 02:08:14;;;;;;;106.95;48.13;;;;;;;;;;5069578;28;20040;-73
2022/01/26 02:10:41;;;;;;;110.85;48.42;;;;;;;;;;5073740;28;20119;-73
2022/01/26 02:13:17;;;;;;;116.90;52.20;;;;;;;;;;5081184;28;20507;-72
2022/01/26 02:21:03;;;;;;;128.07;54.05;;;;;;;;;;5080941;28;20390;-72
2022/01/26 02:56:20;;;;;;;314.42;61.95;;;;;;;;;;5074051;28;20044;-72
2022/01/26 03:04:01;;;;;;;220.77;55.65;;;;;;;;;;5088961;28;20394;-72
2022/01/26 03:06:36;;;;;;;108.78;46.25;;;;;;;;;;5081647;28;20038;-72
2022/01/26 03:09:09;;;;;;;105.28;43.78;;;;;;;;;;5076913;28;20024;-72
2022/01/26 03:11:38;;;;;;;461.85;77.72;;;;;;;;;;5078184;28;20392;-72
2022/01/26 03:14:15;;;;;;;199.73;49.90;;;;;;;;;;5084165;28;20039;-72
2022/01/26 03:16:47;;;;;;;95.07;42.70;;;;;;;;;;5074027;28;20059;-73
2022/01/26 03:19:21;;;;;;;136.05;48.92;;;;;;;;;;5078927;28;20131;-73
2022/01/26 03:28:04;;;;;;;509.48;92.15;;;;;;;;;;5088731;28;20114;-72
2022/01/26 03:35:17;;;;;;;99.68;44.90;;;;;;;;;;5072144;28;20704;-73
2022/01/26 03:37:52;;;;;;;121.93;45.47;;;;;;;;;;5089570;28;20779;-72
2022/01/26 03:40:18;;;;;;;116.53;46.53;;;;;;;;;;5076603;28;20041;-72
2022/01/26 03:42:44;;;;;;;111.95;48.55;;;;;;;;;;5076336;28;20036;-73
2022/01/26 03:45:10;;;;;;;99.15;44.38;;;;;;;;;;5094545;28;20028;-72
2022/01/26 03:47:36;;;;;;;204.85;60.38;;;;;;;;;;5084499;28;20149;-72
2022/01/26 03:50:03;;;;;;;108.65;48.30;;;;;;;;;;5095914;28;20028;-72
2022/01/26 03:52:29;;;;;;;159.52;53.97;;;;;;;;;;5085855;28;20462;-73
2022/01/26 03:54:55;;;;;;;126.78;50.28;;;;;;;;;;5078559;28;20126;-73
2022/01/26 03:57:21;;;;;;;114.22;48.10;;;;;;;;;;5085807;28;20055;-73
2022/01/26 03:59:47;;;;;;;113.60;45.40;;;;;;;;;;5101988;28;20039;-73
2022/01/26 04:02:13;;;;;;;110.03;43.97;;;;;;;;;;5095240;28;20122;-73
2022/01/26 04:04:47;;;;;;;129.13;49.75;;;;;;;;;;5087766;28;21928;-73
2022/01/26 04:07:13;;;;;;;106.68;47.08;;;;;;;;;;5095203;28;20024;-73
2022/01/26 04:09:39;;;;;;;92.38;41.90;;;;;;;;;;5106684;28;20027;-73
2022/01/26 04:12:05;;;;;;;148.15;47.25;;;;;;;;;;5115868;28;20099;-72
2022/01/26 04:14:33;;;;;;;133.90;43.03;;;;;;;;;;5114815;28;20466;-73
2022/01/26 04:16:59;;;;;;;103.47;43.58;;;;;;;;;;5097159;28;20087;-72
2022/01/26 04:19:28;;;;;;;97.30;42.08;;;;;;;;;;5088399;28;20024;-73
2022/01/26 04:24:44;;;;;;;103.72;39.70;;;;;;;;;;5090187;28;20428;-72
2022/01/26 04:30:11;;;;;;;79.35;37.30;;;;;;;;;;5041724;28;20040;-72
2022/01/26 04:32:37;;;;;;;79.50;38.40;;;;;;;;;;5102551;28;20056;-72
2022/01/26 04:35:03;;;;;;;87.57;38.47;;;;;;;;;;5107805;28;20028;-72
2022/01/26 04:37:50;;;;;;;265.13;53.95;;;;;;;;;;5095111;28;20036;-73
2022/01/26 04:40:17;;;;;;;89.35;39.17;;;;;;;;;;5091124;28;20101;-72
2022/01/26 04:42:56;;;;;;;76.45;35.42;;;;;;;;;;5095130;28;20398;-73
2022/01/26 04:45:22;;;;;;;81.38;36.30;;;;;;;;;;5084704;28;20027;-73
2022/01/26 04:47:49;;;;;;;84.65;37.92;;;;;;;;;;5095569;28;20032;-73
2022/01/26 04:50:15;;;;;;;83.55;38.92;;;;;;;;;;5094230;28;20038;-73
2022/01/26 04:52:43;;;;;;;98.35;41.72;;;;;;;;;;5074884;28;20713;-72
2022/01/26 04:55:09;;;;;;;85.82;42.30;;;;;;;;;;5081998;28;20032;-73
2022/01/26 04:57:35;;;;;;;95.90;41.85;;;;;;;;;;5091296;28;20111;-73
2022/01/26 05:00:01;;;;;;;114.70;54.33;;;;;;;;;;5090842;28;20186;-73
2022/01/26 05:02:27;;;;;;;254.25;64.70;;;;;;;;;;5084052;28;20040;-72
2022/01/26 05:04:53;;;;;;;89.57;40.33;;;;;;;;;;5083356;28;20017;-72
2022/01/26 05:07:19;;;;;;;113.57;41.30;;;;;;;;;;5089621;28;20028;-72
2022/01/26 05:09:45;;;;;;;145.60;47.72;;;;;;;;;;5070655;28;20021;-73
2022/01/26 05:12:13;;;;;;;252.02;51.35;;;;;;;;;;5087706;28;20054;-72
2022/01/26 05:14:41;;;;;;;239.38;54.83;;;;;;;;;;5076172;28;20458;-72
2022/01/26 05:17:07;;;;;;;216.38;54.65;;;;;;;;;;5085910;28;20079;-72
2022/01/26 05:19:33;;;;;;;362.88;67.40;;;;;;;;;;5091093;28;20050;-72
2022/01/26 05:21:59;;;;;;;87.40;43.10;;;;;;;;;;5086706;28;20071;-73
2022/01/26 05:24:25;;;;;;;92.15;41.67;;;;;;;;;;5087902;28;20024;-73
2022/01/26 05:26:51;;;;;;;76.65;37.88;;;;;;;;;;5090892;28;20110;-73
2022/01/26 05:29:17;;;;;;;106.38;40.60;;;;;;;;;;5076370;28;20028;-72
2022/01/26 05:31:43;;;;;;;98.43;42.22;;;;;;;;;;5091197;28;20080;-73
2022/01/26 05:34:09;;;;;;;88.78;39.53;;;;;;;;;;5090659;28;20036;-73
2022/01/26 05:36:35;;;;;;;82.82;38.60;;;;;;;;;;5090525;28;20036;-73
2022/01/26 05:39:01;;;;;;;268.92;54.78;;;;;;;;;;5084465;28;20102;-73
2022/01/26 05:41:27;;;;;;;197.35;53.47;;;;;;;;;;5089178;28;20032;-73
2022/01/26 05:43:53;;;;;;;118.95;46.50;;;;;;;;;;5090888;28;20037;-72
2022/01/26 05:46:27;;;;;;;81.18;37.75;;;;;;;;;;5090235;28;20082;-73
2022/01/26 05:48:55;;;;;;;178.40;49.72;;;;;;;;;;5091088;28;20028;-73
2022/01/26 05:51:22;;;;;;;252.60;54.97;;;;;;;;;;5086449;28;20032;-73
2022/01/26 05:53:48;;;;;;;94.90;40.33;;;;;;;;;;5090330;28;20071;-72
2022/01/26 05:56:14;;;;;;;81.25;37.60;;;;;;;;;;5090575;28;20067;-73
2022/01/26 05:58:40;;;;;;;89.25;37.65;;;;;;;;;;5084895;28;20064;-73
2022/01/26 06:01:06;;;;;;;82.65;37.63;;;;;;;;;;5089659;28;20036;-72
2022/01/26 06:03:33;;;;;;;86.00;39.05;;;;;;;;;;5079703;28;20039;-73
2022/01/26 06:05:59;;;;;;;133.20;45.88;;;;;;;;;;5080435;28;20486;-73
2022/01/26 06:08:25;;;;;;;90.35;41.47;;;;;;;;;;5082153;28;20471;-72
2022/01/26 06:10:52;;;;;;;92.75;42.25;;;;;;;;;;5085569;28;20059;-73
2022/01/26 06:13:18;;;;;;;101.47;42.58;;;;;;;;;;5087357;28;20043;-73
2022/01/26 06:15:45;;;;;;;92.38;41.13;;;;;;;;;;5086693;28;20378;-72
2022/01/26 06:18:11;;;;;;;98.60;41.83;;;;;;;;;;5088670;28;20479;-72
2022/01/26 06:20:38;;;;;;;78.72;38.55;;;;;;;;;;5087142;28;20028;-72
2022/01/26 06:23:04;;;;;;;114.63;42.95;;;;;;;;;;5083664;28;20036;-73
2022/01/26 06:25:30;;;;;;;95.53;40.83;;;;;;;;;;5079535;28;20105;-72
2022/01/26 06:27:59;;;;;;;89.18;40.97;;;;;;;;;;5086501;28;20028;-73
2022/01/26 06:30:25;;;;;;;96.07;41.08;;;;;;;;;;5087447;28;20495;-72
2022/01/26 06:32:52;;;;;;;93.78;39.90;;;;;;;;;;5088214;28;20103;-72
2022/01/26 06:35:18;;;;;;;90.63;39.22;;;;;;;;;;5088954;28;20066;-71
2022/01/26 06:37:44;;;;;;;110.07;46.88;;;;;;;;;;5090172;28;20028;-72
2022/01/26 06:40:11;;;;;;;77.18;37.85;;;;;;;;;;5089051;28;20051;-72
2022/01/26 06:42:52;;;;;;;91.40;40.28;;;;;;;;;;5088499;28;20046;-73
2022/01/26 06:45:21;;;;;;;81.75;39.20;;;;;;;;;;5085897;28;20055;-73
2022/01/26 06:47:51;;;;;;;83.85;40.45;;;;;;;;;;5084282;28;20021;-73
2022/01/26 06:50:20;;;;;;;95.78;40.22;;;;;;;;;;5086951;28;20036;-73
2022/01/26 06:52:47;;;;;;;80.75;39.65;;;;;;;;;;5086708;28;20063;-73
2022/01/26 06:55:14;;;;;;;83.35;35.92;;;;;;;;;;5086744;28;20038;-72
2022/01/26 06:57:40;;;;;;;104.47;39.38;;;;;;;;;;5077939;28;20413;-73
2022/01/26 07:00:07;;;;;;;92.30;41.20;;;;;;;;;;5088135;28;20032;-73
2022/01/26 07:02:33;;;;;;;83.25;38.58;;;;;;;;;;5088619;28;20032;-73
2022/01/26 07:04:59;;;;;;;95.15;42.53;;;;;;;;;;5082184;28;20028;-73
2022/01/26 07:07:25;;;;;;;96.30;43.85;;;;;;;;;;5101777;28;20036;-73
2022/01/26 07:09:51;;;;;;;103.88;47.95;;;;;;;;;;5082122;28;20103;-73
2022/01/26 07:12:17;;;;;;;101.68;43.58;;;;;;;;;;5079465;28;20036;-73
2022/01/26 07:22:59;;;;;;;96.50;41.75;;;;;;;;;;5085216;28;20059;-73
2022/01/26 07:25:25;;;;;;;239.80;69.13;;;;;;;;;;5088730;28;20586;-73
2022/01/26 07:27:51;;;;;;;195.38;52.95;;;;;;;;;;5088073;28;20463;-73
2022/01/26 07:30:17;;;;;;;112.60;44.00;;;;;;;;;;5088890;28;20893;-73
2022/01/26 07:32:43;;;;;;;88.15;39.63;;;;;;;;;;5088068;28;20563;-73
2022/01/26 07:35:09;;;;;;;97.30;42.95;;;;;;;;;;5088601;28;20549;-73
2022/01/26 07:37:35;;;;;;;109.10;47.50;;;;;;;;;;5085745;28;20512;-73
2022/01/26 07:42:29;;;;;;;94.70;39.47;;;;;;;;;;5088593;28;20055;-73
2022/01/26 07:44:55;;;;;;;163.18;49.47;;;;;;;;;;5088658;28;20032;-73
2022/01/26 07:47:23;;;;;;;108.25;43.13;;;;;;;;;;5091504;28;20043;-73
2022/01/26 07:49:49;;;;;;;106.65;43.28;;;;;;;;;;5075190;28;20070;-73
2022/01/26 07:52:15;;;;;;;159.38;45.03;;;;;;;;;;5087345;28;20031;-73
2022/01/26 07:54:44;;;;;;;93.90;40.47;;;;;;;;;;5087381;28;20105;-73
2022/01/26 07:57:11;;;;;;;91.35;39.53;;;;;;;;;;5087164;28;20024;-73
2022/01/26 07:59:37;;;;;;;183.98;50.65;;;;;;;;;;5087379;28;20085;-73
2022/01/26 08:02:03;;;;;;;148.02;50.50;;;;;;;;;;5088663;28;20036;-73
2022/01/26 08:04:29;;;;;;;167.85;60.35;;;;;;;;;;5085454;28;20479;-73
2022/01/26 08:06:55;;;;;;;284.08;74.03;;;;;;;;;;5070247;28;20037;-73
2022/01/26 08:09:21;;;;;;;171.27;62.47;;;;;;;;;;5087043;28;20032;-73
2022/01/26 08:11:47;;;;;;;116.30;47.40;;;;;;;;;;5088619;28;20538;-73
2022/01/26 08:14:13;;;;;;;198.98;56.92;;;;;;;;;;5079093;28;20495;-73
2022/01/26 08:16:39;;;;;;;113.95;45.95;;;;;;;;;;5086536;28;20090;-73
2022/01/26 08:19:07;;;;;;;131.32;49.75;;;;;;;;;;5084603;28;20047;-73
2022/01/26 08:21:33;;;;;;;141.23;50.45;;;;;;;;;;5087606;28;20024;-73
2022/01/26 08:24:03;;;;;;;108.70;47.45;;;;;;;;;;5082432;28;20112;-73
2022/01/26 08:26:42;;;;;;;249.15;62.75;;;;;;;;;;5085615;28;20016;-73
2022/01/26 08:29:17;;;;;;;116.05;48.05;;;;;;;;;;5092306;28;20588;-73
2022/01/26 08:31:43;;;;;;;106.20;49.55;;;;;;;;;;5096407;28;20102;-73
2022/01/26 08:34:09;;;;;;;150.98;51.65;;;;;;;;;;5091525;28;20066;-73
2022/01/26 08:36:35;;;;;;;138.25;55.45;;;;;;;;;;5086727;28;20024;-74
2022/01/26 08:39:01;;;;;;;113.25;46.47;;;;;;;;;;5090186;28;20093;-73
2022/01/26 08:41:28;;;;;;;399.15;73.35;;;;;;;;;;5087900;28;20637;-73
2022/01/26 08:43:54;;;;;;;114.20;45.58;;;;;;;;;;5091147;28;20379;-73
2022/01/26 08:46:20;;;;;;;119.20;50.20;;;;;;;;;;5091229;28;20035;-73
2022/01/26 08:48:47;;;;;;;130.18;50.85;;;;;;;;;;5091636;28;20483;-73
2022/01/26 08:51:14;;;;;;;269.95;62.72;;;;;;;;;;5068733;28;20032;-73
2022/01/26 08:53:40;;;;;;;179.82;57.45;;;;;;;;;;5091798;28;20040;-73
2022/01/26 08:56:06;;;;;;;342.00;71.43;;;;;;;;;;5089363;28;20039;-73
2022/01/26 08:58:32;;;;;;;286.23;68.95;;;;;;;;;;5089792;28;20036;-73
2022/01/26 09:00:58;;;;;;;245.80;66.28;;;;;;;;;;5091037;28;20040;-73
2022/01/26 09:03:24;;;;;;;135.77;55.20;;;;;;;;;;5079722;28;20032;-73
2022/01/26 09:05:50;;;;;;;121.80;52.90;;;;;;;;;;5091389;28;20028;-73
2022/01/26 09:08:17;;;;;;;182.32;58.35;;;;;;;;;;5091855;28;20111;-73
2022/01/26 09:10:43;;;;;;;124.53;54.30;;;;;;;;;;5091787;28;20749;-73
2022/01/26 09:13:10;;;;;;;132.32;56.22;;;;;;;;;;5090388;28;20039;-73
2022/01/26 09:15:38;;;;;;;126.40;52.58;;;;;;;;;;5078008;28;20058;-73
2022/01/26 09:18:06;;;;;;;178.23;56.55;;;;;;;;;;5091164;28;20115;-73
2022/01/26 09:20:38;;;;;;;161.35;55.42;;;;;;;;;;5091583;28;20031;-73
2022/01/26 09:23:04;;;;;;;129.75;51.33;;;;;;;;;;5090884;28;20782;-73
2022/01/26 09:25:30;;;;;;;184.63;59.83;;;;;;;;;;5082458;28;20025;-73
2022/01/26 09:27:56;;;;;;;239.50;68.00;;;;;;;;;;5070628;28;20087;-73
2022/01/26 09:30:23;;;;;;;133.55;54.33;;;;;;;;;;5087023;28;20061;-73
2022/01/26 09:32:49;;;;;;;126.57;50.35;;;;;;;;;;5069491;28;20707;-73
2022/01/26 09:35:15;;;;;;;143.85;53.97;;;;;;;;;;5088254;28;20116;-73
2022/01/26 09:37:41;;;;;;;144.73;58.17;;;;;;;;;;5090641;28;20058;-73
2022/01/26 09:40:08;;;;;;;122.25;51.40;;;;;;;;;;5090061;28;20044;-73
2022/01/26 09:42:36;;;;;;;124.53;53.08;;;;;;;;;;5090387;28;20070;-73
2022/01/26 09:45:03;;;;;;;107.43;46.35;;;;;;;;;;5087374;28;20027;-73
2022/01/26 09:47:29;;;;;;;139.63;56.22;;;;;;;;;;5082202;28;20971;-73
2022/01/26 09:49:55;;;;;;;212.57;67.10;;;;;;;;;;5090725;28;20027;-73
2022/01/26 09:52:29;;;;;;;158.85;59.22;;;;;;;;;;5089396;28;20111;-73
2022/01/26 09:55:03;;;;;;;170.40;62.95;;;;;;;;;;5090225;28;20401;-73
2022/01/26 09:57:30;;;;;;;143.45;59.60;;;;;;;;;;5086690;28;20091;-73
2022/01/26 09:59:56;;;;;;;142.30;61.15;;;;;;;;;;5087772;28;20032;-73
2022/01/26 10:02:26;;;;;;;133.52;54.47;;;;;;;;;;5089005;28;20067;-73
2022/01/26 10:05:02;;;;;;;130.68;55.72;;;;;;;;;;5078548;28;20028;-73
2022/01/26 10:15:39;;;;;;;109.47;51.30;;;;;;;;;;5089342;28;20123;-73
2022/01/26 10:18:10;;;;;;;97.63;50.78;;;;;;;;;;5087780;28;20080;-73
2022/01/26 10:20:40;;;;;;;107.95;54.10;;;;;;;;;;5085151;28;20031;-73
2022/01/26 10:23:13;;;;;;;105.60;52.55;;;;;;;;;;5085634;28;20043;-73
2022/01/26 10:25:41;;;;;;;95.07;47.45;;;;;;;;;;5088709;28;20130;-73
2022/01/26 10:28:13;;;;;;;89.07;46.28;;;;;;;;;;5088991;28;20579;-73
2022/01/26 10:30:44;;;;;;;86.93;44.07;;;;;;;;;;5090049;28;20051;-73
2022/01/26 10:33:10;;;;;;;92.65;50.13;;;;;;;;;;5083921;28;20040;-73
2022/01/26 10:35:36;;;;;;;91.18;47.22;;;;;;;;;;5070812;28;20412;-73
2022/01/26 10:38:03;;;;;;;84.13;44.30;;;;;;;;;;5089464;28;20024;-73
2022/01/26 10:40:29;;;;;;;84.05;41.70;;;;;;;;;;5079604;28;20113;-73
2022/01/26 10:43:07;;;;;;;81.38;42.80;;;;;;;;;;5089708;28;20447;-73
2022/01/26 10:45:37;;;;;;;87.38;44.22;;;;;;;;;;5083632;28;20044;-73
2022/01/26 10:48:10;;;;;;;83.35;42.60;;;;;;;;;;5085128;28;20028;-73
2022/01/26 10:53:16;;;;;;;83.53;42.30;;;;;;;;;;5085912;28;20075;-73
2022/01/26 10:55:42;;;;;;;91.28;48.35;;;;;;;;;;5079623;28;20371;-73
2022/01/26 10:58:08;;;;;;;89.53;43.28;;;;;;;;;;5091730;28;20036;-73
2022/01/26 11:00:38;;;;;;;81.72;46.25;;;;;;;;;;5084120;28;20044;-71
2022/01/26 11:03:05;;;;;;;87.57;45.63;;;;;;;;;;5087273;28;20063;-71
2022/01/26 11:05:31;;;;;;;87.30;48.05;;;;;;;;;;5089154;28;20081;-71
2022/01/26 11:07:58;;;;;;;86.55;44.55;;;;;;;;;;5088310;28;20036;-71
2022/01/26 11:10:32;;;;;;;89.82;43.55;;;;;;;;;;5088955;28;20032;-71
2022/01/26 11:12:58;;;;;;;90.80;44.28;;;;;;;;;;5088609;28;20081;-71
2022/01/26 11:15:24;;;;;;;93.10;50.03;;;;;;;;;;5088990;28;20040;-71
2022/01/26 11:17:51;;;;;;;77.25;42.38;;;;;;;;;;5083904;28;20037;-71
2022/01/26 11:20:28;;;;;;;82.10;44.50;;;;;;;;;;5085483;28;20028;-71
2022/01/26 11:22:55;;;;;;;73.70;41.58;;;;;;;;;;5092132;28;20111;-71
2022/01/26 11:25:23;;;;;;;74.63;40.60;;;;;;;;;;5087636;28;20138;-71
2022/01/26 11:27:50;;;;;;;87.13;44.60;;;;;;;;;;5088706;28;20032;-71
2022/01/26 11:30:26;;;;;;;89.18;49.28;;;;;;;;;;5087783;28;20077;-71
2022/01/26 11:33:02;;;;;;;75.90;41.55;;;;;;;;;;5083703;28;20024;-71
2022/01/26 11:35:34;;;;;;;73.65;38.38;;;;;;;;;;5088084;28;20039;-71
2022/01/26 11:42:12;;;;;;;77.07;40.25;;;;;;;;;;5088906;28;20028;-71
2022/01/26 11:46:59;;;;;;;65.60;34.53;;;;;;;;;;5088505;28;20119;-71
2022/01/26 11:49:40;;;;;;;64.47;34.63;;;;;;;;;;5087319;28;20028;-71
2022/01/26 11:52:06;;;;;;;65.07;35.40;;;;;;;;;;5082264;28;20073;-71
2022/01/26 11:54:41;;;;;;;76.10;41.47;;;;;;;;;;5081464;28;20463;-71
2022/01/26 11:57:12;;;;;;;66.78;37.38;;;;;;;;;;5087901;28;20113;-71
2022/01/26 11:59:45;;;;;;;60.28;31.90;;;;;;;;;;5072141;28;20036;-71
2022/01/26 12:02:31;;;;;;;64.28;33.30;;;;;;;;;;5084224;28;20036;-71
2022/01/26 12:05:10;;;;;;;65.35;36.05;;;;;;;;;;5087592;28;20155;-71
2022/01/26 12:07:47;;;;;;;56.05;34.10;;;;;;;;;;5090922;28;20674;-71
2022/01/26 12:10:18;;;;;;;69.20;37.22;;;;;;;;;;5091288;28;20028;-71
2022/01/26 12:12:44;;;;;;;67.75;34.25;;;;;;;;;;5104864;28;20430;-71
2022/01/26 12:15:16;;;;;;;74.65;35.70;;;;;;;;;;5094655;28;20028;-72
2022/01/26 12:37:06;;;;;;;60.10;33.55;;;;;;;;;;5097309;28;20402;-73
2022/01/26 12:42:36;;;;;;;53.65;28.90;;;;;;;;;;5091580;28;20047;-71
2022/01/26 12:45:03;;;;;;;62.63;29.75;;;;;;;;;;5091963;28;20028;-71
2022/01/26 12:47:30;;;;;;;56.92;31.90;;;;;;;;;;5092384;28;20028;-71
2022/01/26 12:49:57;;;;;;;60.00;33.15;;;;;;;;;;5090864;28;20721;-71
2022/01/26 12:52:24;;;;;;;64.93;33.38;;;;;;;;;;5088158;28;20796;-71
2022/01/26 12:54:50;;;;;;;64.55;33.97;;;;;;;;;;5082163;28;20055;-71
2022/01/26 12:57:17;;;;;;;57.63;31.17;;;;;;;;;;5089211;28;20532;-71
2022/01/26 12:59:43;;;;;;;57.70;31.10;;;;;;;;;;5075611;28;20040;-71
2022/01/26 13:02:09;;;;;;;60.50;31.65;;;;;;;;;;5088549;28;20044;-71
2022/01/26 13:04:35;;;;;;;52.33;27.75;;;;;;;;;;5090887;28;20028;-73
2022/01/26 13:07:01;;;;;;;47.20;28.17;;;;;;;;;;5083757;28;20039;-73
2022/01/26 13:09:29;;;;;;;52.53;28.13;;;;;;;;;;5089996;28;20024;-73
2022/01/26 13:11:56;;;;;;;54.03;28.17;;;;;;;;;;5083286;28;20769;-73
2022/01/26 13:14:43;;;;;;;51.47;28.50;;;;;;;;;;5090242;28;20028;-73
2022/01/26 13:25:02;;;;;;;63.10;32.90;;;;;;;;;;5091138;28;20508;-73
2022/01/26 13:30:33;;;;;;;52.47;32.60;;;;;;;;;;5091161;28;20505;-73
2022/01/26 13:43:38;;;;;;;55.60;31.05;;;;;;;;;;5090634;28;20665;-73
2022/01/26 14:01:43;;;;;;;50.00;28.60;;;;;;;;;;5090159;28;20077;-73
2022/01/26 14:04:09;;;;;;;59.20;32.22;;;;;;;;;;5090607;28;20111;-73
2022/01/26 14:06:35;;;;;;;54.28;28.98;;;;;;;;;;5090214;28;20032;-73
2022/01/26 14:09:01;;;;;;;54.50;29.85;;;;;;;;;;5084465;28;20035;-73
2022/01/26 14:11:27;;;;;;;52.88;29.40;;;;;;;;;;5089767;28;20027;-73
2022/01/26 14:13:56;;;;;;;58.35;30.38;;;;;;;;;;5088416;28;20101;-73
2022/01/26 14:16:24;;;;;;;57.78;31.65;;;;;;;;;;5090281;28;20125;-73
2022/01/26 14:19:05;;;;;;;52.75;30.52;;;;;;;;;;5089515;28;20043;-73
2022/01/26 14:26:46;;;;;;;55.92;33.20;;;;;;;;;;5082335;28;20378;-71
2022/01/26 14:29:23;;;;;;;53.88;30.35;;;;;;;;;;5086404;28;20031;-71
2022/01/26 14:39:34;;;;;;;52.47;28.17;;;;;;;;;;5090030;28;20088;-73
2022/01/26 14:51:04;;;;;;;54.85;30.70;;;;;;;;;;5081864;28;20101;-73
2022/01/26 15:21:10;;;;;;;63.33;32.03;;;;;;;;;;5092236;28;20131;-73
2022/01/26 15:29:57;;;;;;;69.00;33.92;;;;;;;;;;5087262;28;20040;-73
2022/01/26 15:31:54;;;;;;;85.53;40.83;;;;;;;;;;5088601;28;20047;-73
2022/01/26 15:50:59;;;;;;;76.32;36.80;;;;;;;;;;5088784;28;20123;-73
2022/01/26 16:17:34;;;;;;;159.68;48.22;;;;;;;;;;5086336;28;20078;-73
2022/01/26 16:20:12;;;;;;;93.32;44.00;;;;;;;;;;5075021;28;20036;-72
2022/01/26 17:25:30;;;;;;;107.72;47.85;;;;;;;;;;5090709;28;20040;-72
2022/01/26 17:43:28;;;;;;;101.55;49.28;;;;;;;;;;5091020;28;20035;-71
2022/01/26 18:06:32;;;;;;;101.50;39.33;;;;;;;;;;5084676;28;20067;-71
2022/01/26 18:14:21;;;;;;;88.03;40.38;;;;;;;;;;5089275;28;20047;-71
2022/01/26 18:27:02;;;;;;;94.60;42.92;;;;;;;;;;5083063;28;20108;-71
2022/01/26 18:32:23;;;;;;;126.47;47.40;;;;;;;;;;5083852;28;20110;-71
2022/01/26 18:51:23;;;;;;;107.60;42.88;;;;;;;;;;5087352;28;20687;-71
2022/01/26 18:53:49;;;;;;;119.28;47.35;;;;;;;;;;5089134;28;20067;-71
2022/01/26 18:56:15;;;;;;;104.40;45.55;;;;;;;;;;5088517;28;20032;-71
2022/01/26 18:58:41;;;;;;;127.30;47.53;;;;;;;;;;5089102;28;20042;-71
2022/01/26 19:01:07;;;;;;;91.05;42.75;;;;;;;;;;5084589;28;20028;-71
2022/01/26 19:03:33;;;;;;;97.10;43.75;;;;;;;;;;5086755;28;20047;-71
2022/01/26 19:06:01;;;;;;;181.63;48.00;;;;;;;;;;5081332;28;20110;-71
2022/01/26 19:08:28;;;;;;;104.35;40.90;;;;;;;;;;5085973;28;20020;-71
2022/01/26 19:10:55;;;;;;;103.43;43.70;;;;;;;;;;5083818;28;20106;-71
2022/01/26 19:13:26;;;;;;;107.35;45.25;;;;;;;;;;5087410;28;20073;-71
2022/01/26 19:15:57;;;;;;;150.40;48.47;;;;;;;;;;5083656;28;20859;-71
2022/01/26 19:18:36;;;;;;;116.10;46.15;;;;;;;;;;5087171;28;20042;-71
2022/01/26 19:21:15;;;;;;;84.95;40.38;;;;;;;;;;5087565;28;20162;-71
2022/01/26 19:24:08;;;;;;;152.52;42.50;;;;;;;;;;5086866;28;20028;-71
2022/01/26 19:26:40;;;;;;;82.05;38.53;;;;;;;;;;5087843;28;20368;-71
2022/01/26 19:29:23;;;;;;;105.30;40.72;;;;;;;;;;5078192;28;20024;-71
2022/01/26 19:45:55;;;;;;;155.07;48.28;;;;;;;;;;5086201;28;20482;-71
2022/01/26 19:50:55;;;;;;;123.95;52.40;;;;;;;;;;5089842;28;20082;-71
2022/01/26 19:53:21;;;;;;;119.93;51.33;;;;;;;;;;5090011;28;20181;-71
2022/01/26 19:55:47;;;;;;;120.18;53.85;;;;;;;;;;5090304;28;20456;-71
2022/01/26 19:58:13;;;;;;;359.30;75.90;;;;;;;;;;5090026;28;20383;-71
2022/01/26 20:00:43;;;;;;;84.03;41.20;;;;;;;;;;5076595;28;20044;-71
2022/01/26 20:03:14;;;;;;;102.57;41.60;;;;;;;;;;5070355;28;20028;-71
2022/01/26 20:05:41;;;;;;;91.22;44.53;;;;;;;;;;5082418;28;20036;-71
2022/01/26 20:08:27;;;;;;;104.15;42.75;;;;;;;;;;5086983;28;20115;-71
2022/01/26 20:10:58;;;;;;;100.65;46.92;;;;;;;;;;5083249;28;20032;-71
2022/01/26 20:13:33;;;;;;;101.57;46.58;;;;;;;;;;5073079;28;20030;-71
2022/01/26 20:16:00;;;;;;;105.93;43.00;;;;;;;;;;5084368;28;20032;-71
2022/01/26 20:18:27;;;;;;;80.57;40.55;;;;;;;;;;5084935;28;20051;-71
2022/01/26 20:20:58;;;;;;;94.30;41.58;;;;;;;;;;5085276;28;20154;-71
2022/01/26 20:23:27;;;;;;;75.35;39.90;;;;;;;;;;5085514;28;20028;-71
2022/01/26 20:25:58;;;;;;;88.95;41.47;;;;;;;;;;5075490;28;20027;-71
2022/01/26 20:28:25;;;;;;;85.00;39.97;;;;;;;;;;5090301;28;20024;-72
2022/01/26 20:30:52;;;;;;;82.47;38.72;;;;;;;;;;5080042;28;20154;-71
2022/01/26 20:33:18;;;;;;;84.20;39.78;;;;;;;;;;5087272;28;20541;-71
2022/01/26 20:35:44;;;;;;;81.18;39.65;;;;;;;;;;5069074;28;20569;-71
2022/01/26 20:38:10;;;;;;;88.97;41.63;;;;;;;;;;5083552;28;20033;-71
2022/01/26 20:40:36;;;;;;;80.28;35.97;;;;;;;;;;5088513;28;20141;-71
2022/01/26 20:43:03;;;;;;;90.53;37.78;;;;;;;;;;5081361;28;20024;-71
2022/01/26 20:45:30;;;;;;;69.90;37.33;;;;;;;;;;5086795;28;20051;-71
2022/01/26 20:47:58;;;;;;;91.95;38.38;;;;;;;;;;5086907;28;20382;-71
2022/01/26 20:50:25;;;;;;;73.93;38.33;;;;;;;;;;5087652;28;20032;-72
2022/01/26 20:52:52;;;;;;;282.23;67.07;;;;;;;;;;5087641;28;20020;-71
2022/01/26 20:55:18;;;;;;;340.42;78.65;;;;;;;;;;5089283;28;20119;-72
2022/01/26 20:57:44;;;;;;;91.45;40.42;;;;;;;;;;5070989;28;20027;-71
2022/01/26 21:00:11;;;;;;;80.03;38.60;;;;;;;;;;5087319;28;20032;-71
2022/01/26 21:02:37;;;;;;;99.53;41.13;;;;;;;;;;5084175;28;20130;-71
2022/01/26 21:05:06;;;;;;;82.68;39.03;;;;;;;;;;5090463;28;20956;-71
2022/01/26 21:07:32;;;;;;;92.43;39.85;;;;;;;;;;5079113;28;20028;-71
2022/01/26 21:09:58;;;;;;;81.90;40.90;;;;;;;;;;5087242;28;20039;-71
2022/01/26 21:12:26;;;;;;;80.55;38.20;;;;;;;;;;5084761;28;20028;-71
2022/01/26 21:14:52;;;;;;;70.85;34.30;;;;;;;;;;5090785;28;20024;-71
2022/01/26 21:17:18;;;;;;;68.75;34.42;;;;;;;;;;5090017;28;20039;-71